Murray, KY

5:29 AM CST on December 16, 2019 (GMT -0600)
Kyle-Oakley

Weather History for KCEY - November, 2019

Change the Weather History Date:

Friday, November 22, 2019

  Actual Average (KPAH) Record (KPAH)
Temperature  
Mean Temperature 46 °F -  
Max Temperature 51 °F 54 °F 72 °F (2003)
Min Temperature 41 °F 34 °F 11 °F (1964)
Degree Days  
Heating Degree Days 19    
Moisture  
Dew Point 44 °F    
Average Humidity 99    
Maximum Humidity 100    
Minimum Humidity 93    
Precipitation  
Precipitation 1.48 in - - ()
Sea Level Pressure  
Sea Level Pressure 30.04 in    
Wind  
Wind Speed 9 mph (NNE)    
Max Wind Speed 16 mph    
Max Gust Speed 25 mph    
Visibility 8 miles    
Events      
Averages and records for this station are not official NWS values.
T = Trace of Precipitation, MM = Missing Value Source: NWS Daily Summary

Daily Weather History Graph

Daily Weather History Graph

Search for Another Location

Airport or City:

Astronomy

Nov. 22, 2019 Rise Set
Actual Time 6:38 AM CST 4:40 PM CST
Civil Twilight 6:10 AM CST 5:08 PM CST
Nautical Twilight 5:38 AM CST 5:40 PM CST
Astronomical Twilight 5:07 AM CST 6:10 PM CST
Moon 1:53 AM CST (11/22) 2:32 PM CST (11/22)
Length of Visible Light 10h 58m
Length of Day
10h 02m
Waning Crescent, 19% of the Moon is Illuminated
Nov 22
Waning Crescent
Nov 26
New
Dec 4
First Quarter
Dec 11
Full
Dec 18
Last Quarter

Hourly Weather History & Observations

Time (CST) Temp. Windchill Dew Point Humidity Pressure Visibility Wind Dir Wind Speed Gust Speed Precip Events Conditions
12:55 AM 51.8 °F - 51.8 °F 100% 29.99 in 4.0 mi NNE 3.5 mph - 0.21 in   Overcast
1:35 AM 51.8 °F - 51.8 °F 100% 30.00 in 1.2 mi NNE 3.5 mph - 0.23 in   Unknown
1:55 AM 51.8 °F - 51.8 °F 100% 30.00 in 2.5 mi Calm Calm - 0.36 in   Unknown
2:55 AM 51.8 °F - 51.8 °F 100% 29.99 in 1.8 mi North 4.6 mph - 0.28 in   Overcast
3:15 AM 51.8 °F - 51.8 °F 100% 29.99 in 2.5 mi NNW 15.0 mph - 0.08 in   Overcast
3:35 AM 48.2 °F - 48.2 °F 100% 30.01 in 3.0 mi North 12.7 mph - 0.15 in   Overcast
3:55 AM 48.2 °F - 48.2 °F 100% 30.01 in 3.0 mi North 11.5 mph - 0.21 in   Overcast
4:55 AM 44.6 °F 38.1 °F 44.6 °F 100% 30.05 in 3.0 mi North 13.8 mph 20.7 mph 0.29 in   Overcast
5:15 AM 44.6 °F 37.4 °F 44.6 °F 100% 30.04 in 5.0 mi North 16.1 mph 19.6 mph 0.04 in   Overcast
5:35 AM 44.6 °F 41.4 °F 44.6 °F 100% 30.06 in 5.0 mi North 5.8 mph - 0.07 in   Overcast
5:55 AM 44.6 °F 38.4 °F 44.6 °F 100% 30.05 in 5.0 mi NNE 12.7 mph 20.7 mph 0.10 in   Overcast
6:15 AM 44.6 °F 40.2 °F 44.6 °F 100% 30.04 in 6.0 mi NE 8.1 mph - 0.02 in   Overcast
6:55 AM 41.0 °F 33.9 °F 41.0 °F 100% 30.07 in 10.0 mi NNE 12.7 mph 23.0 mph 0.02 in   Overcast
7:15 AM 41.0 °F 32.8 °F 41.0 °F 100% 30.09 in 7.0 mi North 16.1 mph 25.3 mph N/A   Overcast
7:35 AM 41.0 °F 33.9 °F 41.0 °F 100% 30.08 in 10.0 mi North 12.7 mph 21.9 mph 0.01 in   Overcast
8:15 AM 41.0 °F 33.5 °F 41.0 °F 100% 30.08 in 10.0 mi NNE 13.8 mph 19.6 mph N/A   Overcast
8:35 AM 41.0 °F 33.1 °F 41.0 °F 100% 30.09 in 10.0 mi North 15.0 mph 18.4 mph N/A   Overcast
8:55 AM 41.0 °F 35.2 °F 41.0 °F 100% 30.09 in 10.0 mi NNE 9.2 mph - N/A   Overcast
9:15 AM 41.0 °F 34.7 °F 41.0 °F 100% 30.10 in 10.0 mi North 10.4 mph - N/A   Overcast
9:35 AM 42.8 °F 36.2 °F 42.8 °F 100% 30.12 in 10.0 mi North 12.7 mph - N/A   Overcast
9:55 AM 42.8 °F 36.6 °F 42.8 °F 100% 30.12 in 10.0 mi North 11.5 mph - N/A   Overcast
10:35 AM 42.8 °F 36.2 °F 42.8 °F 100% 30.13 in 10.0 mi NNE 12.7 mph - N/A   Overcast
11:15 AM 44.6 °F 38.8 °F 44.6 °F 100% 30.11 in 10.0 mi North 11.5 mph - N/A   Overcast
11:35 AM 44.6 °F 38.4 °F 44.6 °F 100% 30.11 in 10.0 mi North 12.7 mph - N/A   Overcast
12:15 PM 44.6 °F 38.4 °F 44.6 °F 100% 30.07 in 10.0 mi NNE 12.7 mph - N/A   Overcast
12:35 PM 44.6 °F 38.8 °F 42.8 °F 93% 30.08 in 10.0 mi NNE 11.5 mph - N/A   Overcast
12:55 PM 44.6 °F 38.1 °F 42.8 °F 93% 30.09 in 10.0 mi NNE 13.8 mph 18.4 mph N/A   Overcast
1:15 PM 44.6 °F 39.2 °F 42.8 °F 93% 30.09 in 10.0 mi NNE 10.4 mph - N/A   Overcast
1:35 PM 44.6 °F 38.4 °F 42.8 °F 93% 30.06 in 10.0 mi NE 12.7 mph - N/A   Mostly Cloudy
2:35 PM 44.6 °F 38.1 °F 42.8 °F 93% 30.06 in 10.0 mi North 13.8 mph - N/A   Overcast
2:55 PM 44.6 °F 38.8 °F 42.8 °F 93% 30.03 in 10.0 mi NE 11.5 mph 17.3 mph N/A   Overcast
3:15 PM 44.6 °F 38.8 °F 42.8 °F 93% 30.04 in 10.0 mi NNE 11.5 mph - N/A   Overcast
3:35 PM 44.6 °F 39.2 °F 42.8 °F 93% 30.05 in 10.0 mi NE 10.4 mph - N/A   Overcast
3:55 PM 42.8 °F 36.6 °F 42.8 °F 100% 30.04 in 10.0 mi NE 11.5 mph - N/A   Overcast
4:15 PM 42.8 °F 36.6 °F 42.8 °F 100% 30.05 in 10.0 mi NNE 11.5 mph - N/A   Overcast
4:55 PM 42.8 °F 36.6 °F 42.8 °F 100% 30.05 in 10.0 mi NNE 11.5 mph - N/A   Overcast
5:15 PM 42.8 °F 36.2 °F 42.8 °F 100% 30.03 in 10.0 mi NNE 12.7 mph 16.1 mph N/A   Overcast
5:35 PM 41.0 °F 34.3 °F 41.0 °F 100% 30.03 in 10.0 mi NE 11.5 mph - N/A   Overcast
5:55 PM 41.0 °F 34.7 °F 41.0 °F 100% 30.04 in 10.0 mi NNE 10.4 mph - N/A   Overcast
6:35 PM 41.0 °F 35.2 °F 41.0 °F 100% 30.05 in 10.0 mi NNE 9.2 mph - N/A   Overcast
6:55 PM 41.0 °F 35.2 °F 41.0 °F 100% 30.05 in 10.0 mi NE 9.2 mph - N/A   Overcast
7:15 PM 41.0 °F 35.2 °F 41.0 °F 100% 30.04 in 10.0 mi NE 9.2 mph - N/A   Overcast
7:35 PM 41.0 °F 34.7 °F 41.0 °F 100% 30.02 in 10.0 mi NE 10.4 mph 17.3 mph N/A   Overcast
7:55 PM 41.0 °F 35.2 °F 41.0 °F 100% 30.02 in 10.0 mi NE 9.2 mph - N/A   Overcast
8:15 PM 42.8 °F 38.6 °F 42.8 °F 100% 30.03 in 10.0 mi NE 6.9 mph - N/A   Overcast
8:35 PM 42.8 °F 39.3 °F 42.8 °F 100% 30.03 in 10.0 mi NNE 5.8 mph - N/A   Overcast
8:55 PM 42.8 °F 38.6 °F 42.8 °F 100% 30.02 in 10.0 mi NNE 6.9 mph - N/A   Overcast
9:15 PM 42.8 °F 38.0 °F 42.8 °F 100% 30.02 in 10.0 mi North 8.1 mph - N/A   Overcast
9:55 PM 42.8 °F 38.0 °F 42.8 °F 100% 30.00 in 10.0 mi NNE 8.1 mph - N/A   Overcast
10:15 PM 42.8 °F 37.5 °F 42.8 °F 100% 30.00 in 10.0 mi NNE 9.2 mph - N/A   Overcast
10:35 PM 41.0 °F 36.4 °F 41.0 °F 100% 29.99 in 10.0 mi NNE 6.9 mph - N/A   Overcast
11:15 PM 41.0 °F 36.4 °F 41.0 °F 100% 29.98 in 10.0 mi NNE 6.9 mph - N/A   Overcast
11:35 PM 41.0 °F 35.2 °F 41.0 °F 100% 29.97 in 10.0 mi NE 9.2 mph - N/A   Overcast
11:55 PM 41.0 °F 35.2 °F 41.0 °F 100% 29.95 in 10.0 mi NE 9.2 mph - N/A   Overcast